createdAt,value
2023-03-02T00:01:10.124Z,8.11
2023-03-02T00:03:39.054Z,8.10
2023-03-02T00:06:06.560Z,8.08
2023-03-02T00:08:33.947Z,8.06
2023-03-02T00:11:01.259Z,8.04
2023-03-02T00:13:30.161Z,8.01
2023-03-02T00:15:56.580Z,7.99
2023-03-02T00:18:23.249Z,7.97
2023-03-02T00:20:49.584Z,7.96
2023-03-02T00:23:15.978Z,7.94
2023-03-02T00:25:42.825Z,7.93
2023-03-02T00:28:09.207Z,7.92
2023-03-02T00:30:37.320Z,7.91
2023-03-02T00:33:03.746Z,7.91
2023-03-02T00:35:30.314Z,7.89
2023-03-02T00:37:56.918Z,7.87
2023-03-02T00:40:23.539Z,7.84
2023-03-02T00:42:50.097Z,7.84
2023-03-02T00:45:16.458Z,7.82
2023-03-02T00:47:42.894Z,7.80
2023-03-02T00:50:10.340Z,7.77
2023-03-02T00:52:36.711Z,7.74
2023-03-02T00:55:03.191Z,7.70
2023-03-02T00:57:29.791Z,7.67
2023-03-02T00:59:56.192Z,7.62
2023-03-02T01:02:22.625Z,7.59
2023-03-02T01:04:49.329Z,7.55
2023-03-02T01:07:18.206Z,7.52
2023-03-02T01:09:45.468Z,7.50
2023-03-02T01:12:12.052Z,7.48
2023-03-02T01:14:42.042Z,7.44
2023-03-02T01:17:09.868Z,7.42
2023-03-02T01:19:36.899Z,7.40
2023-03-02T01:22:04.914Z,7.37
2023-03-02T01:24:32.190Z,7.35
2023-03-02T01:26:58.785Z,7.34
2023-03-02T01:29:25.487Z,7.32
2023-03-02T01:31:52.229Z,7.32
2023-03-02T01:34:18.710Z,7.32
2023-03-02T01:36:45.524Z,7.32
2023-03-02T01:39:16.122Z,7.33
2023-03-02T01:41:44.799Z,7.33
2023-03-02T01:44:42.007Z,7.30
2023-03-02T01:47:17.687Z,7.31
2023-03-02T01:49:54.981Z,7.30
2023-03-02T01:52:21.841Z,7.30
2023-03-02T01:54:49.986Z,7.27
2023-03-02T01:57:23.772Z,7.25
2023-03-02T01:59:56.520Z,7.22
2023-03-02T02:02:23.535Z,7.22
2023-03-02T02:04:51.584Z,7.22
2023-03-02T02:07:18.938Z,7.20
2023-03-02T02:09:51.490Z,7.18
2023-03-02T02:12:23.473Z,7.18
2023-03-02T02:14:50.362Z,7.20
2023-03-02T02:17:18.393Z,7.18
2023-03-02T02:20:07.214Z,7.16
2023-03-02T02:22:48.079Z,7.19
2023-03-02T02:25:36.598Z,7.18
2023-03-02T02:28:08.468Z,7.17
2023-03-02T02:30:38.026Z,7.15
2023-03-02T02:33:05.764Z,7.14
2023-03-02T02:35:36.661Z,7.12
2023-03-02T02:38:06.236Z,7.08
2023-03-02T02:40:55.414Z,7.03
2023-03-02T02:43:23.591Z,7.02
2023-03-02T02:45:54.004Z,7.00
2023-03-02T02:48:26.914Z,6.99
2023-03-02T02:51:00.119Z,6.97
2023-03-02T02:53:43.115Z,6.92
2023-03-02T02:56:11.150Z,6.92
2023-03-02T02:58:43.465Z,6.90
2023-03-02T03:01:17.556Z,6.90
2023-03-02T03:03:53.186Z,6.89
2023-03-02T03:06:25.745Z,6.88
2023-03-02T03:08:56.595Z,6.86
2023-03-02T03:11:26.628Z,6.85
2023-03-02T03:14:02.272Z,6.83
2023-03-02T03:16:31.420Z,6.86
2023-03-02T03:19:05.772Z,6.84
2023-03-02T03:21:32.452Z,6.86
2023-03-02T03:23:59.154Z,6.87
2023-03-02T03:26:25.528Z,6.85
2023-03-02T03:28:51.965Z,6.85
2023-03-02T03:31:18.715Z,6.84
2023-03-02T03:33:45.130Z,6.85
2023-03-02T03:36:11.798Z,6.84
2023-03-02T03:38:38.547Z,6.84
2023-03-02T03:41:05.173Z,6.84
2023-03-02T03:43:32.048Z,6.85
2023-03-02T03:45:58.390Z,6.83
2023-03-02T03:48:24.987Z,6.82
2023-03-02T03:50:51.558Z,6.82
2023-03-02T03:53:19.278Z,6.81
2023-03-02T03:55:45.890Z,6.79
2023-03-02T03:58:12.437Z,6.80
2023-03-02T04:00:38.974Z,6.82
2023-03-02T04:03:05.336Z,6.84
2023-03-02T04:05:33.347Z,6.84
2023-03-02T04:08:02.336Z,6.87
2023-03-02T04:10:29.642Z,6.86
2023-03-02T04:12:56.589Z,6.88
2023-03-02T04:15:23.839Z,6.90
2023-03-02T04:17:51.122Z,6.91
2023-03-02T04:20:21.782Z,6.90
2023-03-02T04:22:51.752Z,6.92
2023-03-02T04:25:21.623Z,6.93
2023-03-02T04:27:50.361Z,6.92
2023-03-02T04:30:20.368Z,6.92
2023-03-02T04:32:47.255Z,6.94
2023-03-02T04:35:14.463Z,6.93
2023-03-02T04:37:42.305Z,6.92
2023-03-02T04:40:10.121Z,6.93
2023-03-02T04:42:36.537Z,6.94
2023-03-02T04:45:04.060Z,6.94
2023-03-02T04:47:30.411Z,6.93
2023-03-02T04:49:58.114Z,6.92
2023-03-02T04:52:25.584Z,6.94
2023-03-02T04:54:52.328Z,6.92
2023-03-02T04:57:18.688Z,6.91
2023-03-02T04:59:45.317Z,6.89
2023-03-02T05:02:11.925Z,6.89
2023-03-02T05:04:40.663Z,6.88
2023-03-02T05:07:07.078Z,6.88
2023-03-02T05:09:33.476Z,6.87
2023-03-02T05:12:00.728Z,6.88
2023-03-02T05:14:27.406Z,6.87
2023-03-02T05:16:54.023Z,6.85
2023-03-02T05:19:20.629Z,6.84
2023-03-02T05:21:47.198Z,6.84
2023-03-02T05:24:14.534Z,6.83
2023-03-02T05:26:41.026Z,6.82
2023-03-02T05:29:07.630Z,6.80
2023-03-02T05:31:37.526Z,6.78
2023-03-02T05:34:05.948Z,6.76
2023-03-02T05:36:32.608Z,6.75
2023-03-02T05:38:59.414Z,6.76
2023-03-02T05:41:25.921Z,6.74
2023-03-02T05:43:53.386Z,6.71
2023-03-02T05:46:22.008Z,6.71
2023-03-02T05:48:48.748Z,6.70
2023-03-02T05:51:15.569Z,6.69
2023-03-02T05:53:41.938Z,6.70
2023-03-02T05:56:08.693Z,6.70
2023-03-02T05:58:35.120Z,6.70
2023-03-02T06:01:01.803Z,6.68
2023-03-02T06:03:28.874Z,6.68
2023-03-02T06:05:55.259Z,6.66
2023-03-02T06:08:21.908Z,6.66
2023-03-02T06:10:51.635Z,6.64
2023-03-02T06:13:17.990Z,6.65
2023-03-02T06:15:44.731Z,6.67
2023-03-02T06:18:12.745Z,6.68
2023-03-02T06:20:40.634Z,6.70
2023-03-02T06:23:06.983Z,6.73
2023-03-02T06:25:33.637Z,6.76
2023-03-02T06:27:59.970Z,6.78
2023-03-02T06:30:27.812Z,6.79
2023-03-02T06:32:54.505Z,6.81
2023-03-02T06:35:21.044Z,6.83
2023-03-02T06:37:47.508Z,6.81
2023-03-02T06:40:14.407Z,6.83
2023-03-02T06:42:42.147Z,6.84
2023-03-02T06:45:09.845Z,6.84
2023-03-02T06:47:36.664Z,6.87
2023-03-02T06:50:04.017Z,6.86
2023-03-02T06:52:30.364Z,6.87
2023-03-02T06:54:56.801Z,6.88
2023-03-02T06:57:23.389Z,6.88
2023-03-02T06:59:49.747Z,6.90
2023-03-02T07:02:16.082Z,6.90
2023-03-02T07:04:42.482Z,6.90
2023-03-02T07:07:08.825Z,6.93
2023-03-02T07:09:35.292Z,6.95
2023-03-02T07:12:01.895Z,6.98
2023-03-02T07:14:28.256Z,6.99
2023-03-02T07:16:57.302Z,7.01
2023-03-02T07:19:24.003Z,7.05
2023-03-02T07:21:50.340Z,7.08
2023-03-02T07:24:16.733Z,7.10
2023-03-02T07:26:43.227Z,7.12
2023-03-02T07:29:09.797Z,7.15
2023-03-02T07:31:36.409Z,7.17
2023-03-02T07:34:02.789Z,7.20
2023-03-02T07:36:29.169Z,7.24
2023-03-02T07:38:55.561Z,7.28
2023-03-02T07:41:22.977Z,7.32
2023-03-02T07:43:49.337Z,7.34
2023-03-02T07:46:16.181Z,7.40
2023-03-02T07:48:42.628Z,7.43
2023-03-02T07:51:08.983Z,7.47
2023-03-02T07:53:35.618Z,7.52
2023-03-02T07:56:10.006Z,7.55
2023-03-02T07:58:36.753Z,7.59
2023-03-02T08:01:03.810Z,7.65
2023-03-02T08:03:30.200Z,7.69
2023-03-02T08:05:56.509Z,7.73
2023-03-02T08:08:22.896Z,7.78
2023-03-02T08:10:49.678Z,7.83
2023-03-02T08:13:16.078Z,7.87
2023-03-02T08:15:42.621Z,7.93
2023-03-02T08:18:09.299Z,7.99
2023-03-02T08:20:35.651Z,8.06
2023-03-02T08:23:02.274Z,8.11
2023-03-02T08:25:29.061Z,8.15
2023-03-02T08:27:55.456Z,8.19
2023-03-02T08:30:21.851Z,8.25
2023-03-02T08:32:48.326Z,8.30
2023-03-02T08:35:14.919Z,8.36
2023-03-02T08:37:41.294Z,8.42
2023-03-02T08:40:08.354Z,8.48
2023-03-02T08:42:34.676Z,8.53
2023-03-02T08:45:01.046Z,8.58
2023-03-02T08:47:28.464Z,8.64
2023-03-02T08:49:55.018Z,8.68
2023-03-02T08:52:21.709Z,8.71
2023-03-02T08:54:48.335Z,8.78
2023-03-02T08:57:14.811Z,8.82
2023-03-02T08:59:41.448Z,8.87
2023-03-02T09:02:10.568Z,8.92
2023-03-02T09:04:37.099Z,8.95
2023-03-02T09:07:04.577Z,9.01
2023-03-02T09:09:30.907Z,9.06
2023-03-02T09:11:57.331Z,9.13
2023-03-02T09:14:24.810Z,9.21
2023-03-02T09:16:52.710Z,9.28
2023-03-02T09:19:19.230Z,9.37
2023-03-02T09:21:45.909Z,9.45
2023-03-02T09:24:12.338Z,9.53
2023-03-02T09:26:39.059Z,9.63
2023-03-02T09:29:07.057Z,9.71
2023-03-02T09:31:34.878Z,9.80
2023-03-02T09:34:01.622Z,9.91
2023-03-02T09:36:28.483Z,9.99
2023-03-02T09:38:55.493Z,10.08
2023-03-02T09:41:41.437Z,10.15
2023-03-02T09:44:34.775Z,10.25
2023-03-02T09:47:04.754Z,10.36
2023-03-02T09:49:49.308Z,10.43
2023-03-02T09:52:34.447Z,10.53
2023-03-02T09:55:14.812Z,10.59
2023-03-02T09:57:41.395Z,10.67
2023-03-02T10:00:19.460Z,10.73
2023-03-02T10:02:51.009Z,10.79
2023-03-02T10:05:22.852Z,10.82
2023-03-02T10:07:49.596Z,10.89
2023-03-02T10:10:25.820Z,10.92
2023-03-02T10:13:19.748Z,10.95
2023-03-02T10:15:52.062Z,11.02
2023-03-02T10:18:24.282Z,11.08
2023-03-02T10:21:00.042Z,11.12
2023-03-02T10:24:09.720Z,11.18
2023-03-02T10:26:40.440Z,11.25
2023-03-02T10:29:28.777Z,11.28
2023-03-02T10:32:07.705Z,11.38
2023-03-02T10:34:37.879Z,11.47
2023-03-02T10:37:13.879Z,11.49
2023-03-02T10:39:40.502Z,11.55
2023-03-02T10:42:14.082Z,11.57
2023-03-02T10:44:44.439Z,11.63
2023-03-02T10:47:21.045Z,11.65
2023-03-02T10:49:48.490Z,11.73
2023-03-02T10:52:20.378Z,11.77
2023-03-02T10:54:49.974Z,11.85
2023-03-02T10:58:04.364Z,11.91
2023-03-02T11:00:33.364Z,12.00
2023-03-02T11:03:04.396Z,12.06
2023-03-02T11:05:40.310Z,12.12
2023-03-02T11:08:26.478Z,12.18
2023-03-02T11:11:00.011Z,12.25
2023-03-02T11:13:36.980Z,12.27
2023-03-02T11:16:31.820Z,12.33
2023-03-02T11:19:16.096Z,12.40
2023-03-02T11:22:21.343Z,12.44
2023-03-02T11:24:57.702Z,12.52
2023-03-02T11:27:29.823Z,12.58
2023-03-02T11:30:18.453Z,12.62
2023-03-02T11:33:04.765Z,12.68
2023-03-02T11:35:35.319Z,12.76
2023-03-02T11:38:28.400Z,12.76
2023-03-02T11:41:07.958Z,12.88
2023-03-02T11:43:34.409Z,12.96
2023-03-02T11:46:21.185Z,13.00
2023-03-02T11:48:53.079Z,13.08
2023-03-02T11:51:25.373Z,13.13
2023-03-02T11:53:59.184Z,13.21
2023-03-02T11:56:37.259Z,13.27
2023-03-02T11:59:12.542Z,13.34
2023-03-02T12:01:40.540Z,13.41
2023-03-02T12:04:26.491Z,13.47
2023-03-02T12:06:53.709Z,13.53
2023-03-02T12:09:23.211Z,13.56
2023-03-02T12:12:23.739Z,13.59
2023-03-02T12:14:50.322Z,13.67
2023-03-02T12:17:19.337Z,13.70
2023-03-02T12:19:47.328Z,13.77
2023-03-02T12:22:24.922Z,13.81
2023-03-02T12:25:19.148Z,13.86
2023-03-02T12:27:48.688Z,13.93
2023-03-02T12:30:15.524Z,13.96
2023-03-02T12:32:45.215Z,13.98
2023-03-02T12:35:17.763Z,14.01
2023-03-02T12:38:05.929Z,14.05
2023-03-02T12:40:59.191Z,14.10
2023-03-02T12:43:30.770Z,14.16
2023-03-02T12:46:37.080Z,14.18
2023-03-02T12:49:31.397Z,14.21
2023-03-02T12:52:01.914Z,14.27
2023-03-02T12:54:31.627Z,14.27
2023-03-02T12:57:13.981Z,14.28
2023-03-02T12:59:40.625Z,14.33
2023-03-02T13:02:36.993Z,14.35
2023-03-02T13:05:08.764Z,14.40
2023-03-02T13:07:41.400Z,14.43
2023-03-02T13:10:36.061Z,14.46
2023-03-02T13:13:15.474Z,14.53
2023-03-02T13:18:53.793Z,14.60
2023-03-02T13:21:21.909Z,14.63
2023-03-02T13:23:51.736Z,14.67
2023-03-02T13:26:35.798Z,14.67
2023-03-02T13:29:32.370Z,14.71
2023-03-02T13:32:15.703Z,14.71
2023-03-02T13:34:50.008Z,14.74
2023-03-02T13:37:23.068Z,14.74
2023-03-02T13:39:57.540Z,14.75
2023-03-02T13:42:39.275Z,14.79
2023-03-02T13:45:24.053Z,14.81
2023-03-02T13:47:51.369Z,14.84
2023-03-02T13:50:25.254Z,14.86
2023-03-02T13:52:55.149Z,14.90
2023-03-02T13:55:26.622Z,14.91
2023-03-02T13:57:54.468Z,14.95
2023-03-02T14:00:29.170Z,14.98
2023-03-02T14:02:56.958Z,15.03
2023-03-02T14:05:32.949Z,15.05
2023-03-02T14:08:03.186Z,15.09
2023-03-02T14:10:29.614Z,15.11
2023-03-02T14:13:03.886Z,15.12
2023-03-02T14:15:30.482Z,15.17
2023-03-02T14:17:57.156Z,15.19
2023-03-02T14:20:23.784Z,15.21
2023-03-02T14:22:50.720Z,15.20
2023-03-02T14:25:17.648Z,15.22
2023-03-02T14:27:44.169Z,15.24
2023-03-02T14:30:21.558Z,15.22
2023-03-02T14:32:49.647Z,15.26
2023-03-02T14:35:16.536Z,15.26
2023-03-02T14:37:47.186Z,15.25
2023-03-02T14:40:18.865Z,15.27
2023-03-02T14:42:45.500Z,15.28
2023-03-02T14:45:12.451Z,15.30
2023-03-02T14:47:38.840Z,15.31
2023-03-02T14:50:06.234Z,15.33
2023-03-02T14:52:41.787Z,15.33
2023-03-02T14:55:19.325Z,15.36
2023-03-02T14:57:50.283Z,15.39
2023-03-02T15:00:18.145Z,15.38
2023-03-02T15:02:44.865Z,15.39
2023-03-02T15:05:11.468Z,15.37
2023-03-02T15:07:38.909Z,15.36
2023-03-02T15:10:06.014Z,15.36
2023-03-02T15:12:32.439Z,15.34
2023-03-02T15:15:00.416Z,15.31
2023-03-02T15:17:27.711Z,15.29
2023-03-02T15:19:54.156Z,15.28
2023-03-02T15:22:20.782Z,15.28
2023-03-02T15:24:48.395Z,15.25
2023-03-02T15:27:15.665Z,15.23
2023-03-02T15:29:48.202Z,15.20
2023-03-02T15:32:15.027Z,15.17
2023-03-02T15:34:42.673Z,15.15
2023-03-02T15:37:13.540Z,15.12
2023-03-02T15:39:40.287Z,15.10
2023-03-02T15:42:07.010Z,15.07
2023-03-02T15:44:33.685Z,15.04
2023-03-02T15:47:01.668Z,15.01
2023-03-02T15:49:29.358Z,14.98
2023-03-02T15:51:57.724Z,14.97
2023-03-02T15:54:27.340Z,14.94
2023-03-02T15:56:54.041Z,14.91
2023-03-02T15:59:22.517Z,14.88
2023-03-02T16:01:49.704Z,14.85
2023-03-02T16:04:16.332Z,14.81
2023-03-02T16:06:43.528Z,14.77
2023-03-02T16:09:10.368Z,14.72
2023-03-02T16:11:38.194Z,14.69
2023-03-02T16:14:04.888Z,14.65
2023-03-02T16:16:31.483Z,14.62
2023-03-02T16:18:59.477Z,14.57
2023-03-02T16:21:30.880Z,14.56
2023-03-02T16:24:05.056Z,14.54
2023-03-02T16:26:35.563Z,14.50
2023-03-02T16:29:02.582Z,14.46
2023-03-02T16:31:33.271Z,14.43
2023-03-02T16:34:07.531Z,14.39
2023-03-02T16:36:39.450Z,14.35
2023-03-02T16:39:08.884Z,14.30
2023-03-02T16:41:38.900Z,14.24
2023-03-02T16:44:08.721Z,14.19
2023-03-02T16:46:39.485Z,14.10
2023-03-02T16:49:06.732Z,14.03
2023-03-02T16:51:34.414Z,13.96
2023-03-02T16:54:09.543Z,13.87
2023-03-02T16:56:38.008Z,13.77
2023-03-02T16:59:04.485Z,13.69
2023-03-02T17:01:31.920Z,13.59
2023-03-02T17:04:01.211Z,13.49
2023-03-02T17:06:30.319Z,13.40
2023-03-02T17:08:57.910Z,13.32
2023-03-02T17:11:25.844Z,13.25
2023-03-02T17:13:52.333Z,13.15
2023-03-02T17:16:20.691Z,13.05
2023-03-02T17:18:48.662Z,12.96
2023-03-02T17:21:17.359Z,12.86
2023-03-02T17:23:45.875Z,12.75
2023-03-02T17:26:12.109Z,12.67
2023-03-02T17:28:40.190Z,12.58
2023-03-02T17:31:08.854Z,12.47
2023-03-02T17:33:37.352Z,12.35
2023-03-02T17:36:08.526Z,12.23
2023-03-02T17:38:36.393Z,12.14
2023-03-02T17:41:05.044Z,12.04
2023-03-02T17:43:37.168Z,11.92
2023-03-02T17:46:22.677Z,11.83
2023-03-02T17:48:53.926Z,11.77
2023-03-02T17:51:24.634Z,11.71
2023-03-02T17:53:58.254Z,11.65
2023-03-02T17:56:27.352Z,11.58
2023-03-02T17:58:57.901Z,11.52
2023-03-02T18:01:24.841Z,11.47
2023-03-02T18:03:51.739Z,11.42
2023-03-02T18:06:20.548Z,11.38
2023-03-02T18:08:59.649Z,11.32
2023-03-02T18:11:26.831Z,11.27
2023-03-02T18:13:54.932Z,11.21
2023-03-02T18:16:26.343Z,11.16
2023-03-02T18:18:54.131Z,11.11
2023-03-02T18:21:27.736Z,11.04
2023-03-02T18:23:56.017Z,10.97
2023-03-02T18:26:22.519Z,10.92
2023-03-02T18:28:48.892Z,10.85
2023-03-02T18:31:21.190Z,10.78
2023-03-02T18:33:54.128Z,10.74
2023-03-02T18:36:23.146Z,10.70
2023-03-02T18:38:52.963Z,10.66
2023-03-02T18:41:24.066Z,10.63
2023-03-02T18:43:51.294Z,10.59
2023-03-02T18:46:26.751Z,10.51
2023-03-02T18:48:54.734Z,10.48
2023-03-02T18:51:27.252Z,10.42
2023-03-02T18:53:55.064Z,10.38
2023-03-02T18:59:05.975Z,10.26
2023-03-02T19:01:36.632Z,10.21
2023-03-02T19:04:03.497Z,10.15
2023-03-02T19:06:29.932Z,10.11
2023-03-02T19:08:59.035Z,10.06
2023-03-02T19:11:26.621Z,9.99
2023-03-02T19:13:56.277Z,9.93
2023-03-02T19:16:22.772Z,9.86
2023-03-02T19:18:49.968Z,9.78
2023-03-02T19:21:22.274Z,9.71
2023-03-02T19:23:48.648Z,9.65
2023-03-02T19:26:15.628Z,9.61
2023-03-02T19:28:44.321Z,9.54
2023-03-02T19:31:11.954Z,9.50
2023-03-02T19:33:42.274Z,9.45
2023-03-02T19:36:09.890Z,9.43
2023-03-02T19:38:42.350Z,9.42
2023-03-02T19:41:19.657Z,9.35
2023-03-02T19:43:47.403Z,9.32
2023-03-02T19:46:16.111Z,9.27
2023-03-02T19:48:44.873Z,9.22
2023-03-02T19:51:13.092Z,9.18
2023-03-02T19:53:43.094Z,9.13
2023-03-02T19:56:14.534Z,9.08
2023-03-02T19:58:49.784Z,9.04
2023-03-02T20:01:21.650Z,9.00
2023-03-02T20:03:51.491Z,8.99
2023-03-02T20:06:19.049Z,8.97
2023-03-02T20:08:47.965Z,8.97
2023-03-02T20:11:15.683Z,8.95
2023-03-02T20:13:42.257Z,8.94
2023-03-02T20:16:14.696Z,8.92
2023-03-02T20:18:42.220Z,8.91
2023-03-02T20:21:09.725Z,8.87
2023-03-02T20:23:36.593Z,8.84
2023-03-02T20:26:08.521Z,8.80
2023-03-02T20:28:36.735Z,8.77
2023-03-02T20:31:08.898Z,8.70
2023-03-02T20:33:42.197Z,8.67
2023-03-02T20:36:10.188Z,8.61
2023-03-02T20:38:41.234Z,8.57
2023-03-02T20:41:09.926Z,8.52
2023-03-02T20:43:36.572Z,8.49
2023-03-02T20:46:06.527Z,8.45
2023-03-02T20:48:35.341Z,8.41
2023-03-02T20:51:03.374Z,8.40
2023-03-02T20:53:30.352Z,8.38
2023-03-02T20:56:06.277Z,8.37
2023-03-02T20:58:41.181Z,8.34
2023-03-02T21:01:10.535Z,8.33
2023-03-02T21:03:37.858Z,8.30
2023-03-02T21:06:05.339Z,8.31
2023-03-02T21:08:34.167Z,8.32
2023-03-02T21:11:00.943Z,8.34
2023-03-02T21:13:37.276Z,8.37
2023-03-02T21:16:07.478Z,8.39
2023-03-02T21:18:35.905Z,8.41
2023-03-02T21:21:03.166Z,8.39
2023-03-02T21:23:30.350Z,8.41
2023-03-02T21:25:58.514Z,8.41
2023-03-02T21:28:26.593Z,8.40
2023-03-02T21:30:53.343Z,8.38
2023-03-02T21:33:20.006Z,8.40
2023-03-02T21:35:47.217Z,8.41
2023-03-02T21:38:14.907Z,8.41
2023-03-02T21:40:46.392Z,8.43
2023-03-02T21:43:13.734Z,8.45
2023-03-02T21:45:43.048Z,8.45
2023-03-02T21:48:13.658Z,8.45
2023-03-02T21:50:45.885Z,8.46
2023-03-02T21:53:12.266Z,8.47
2023-03-02T21:55:39.922Z,8.45
2023-03-02T21:58:06.311Z,8.46
2023-03-02T22:00:35.780Z,8.45
2023-03-02T22:03:02.736Z,8.47
2023-03-02T22:05:30.502Z,8.49
2023-03-02T22:07:59.274Z,8.48
2023-03-02T22:10:55.233Z,8.49
2023-03-02T22:13:27.071Z,8.53
2023-03-02T22:16:18.170Z,8.51
2023-03-02T22:18:48.855Z,8.54
2023-03-02T22:21:38.153Z,8.54
2023-03-02T22:24:11.630Z,8.55
2023-03-02T22:26:47.619Z,8.52
2023-03-02T22:29:37.574Z,8.49
2023-03-02T22:32:17.903Z,8.45
2023-03-02T22:34:46.551Z,8.43
2023-03-02T22:37:22.770Z,8.40
2023-03-02T22:39:53.364Z,8.37
2023-03-02T22:42:22.496Z,8.31
2023-03-02T22:44:59.572Z,8.28
2023-03-02T22:47:28.047Z,8.25
2023-03-02T22:50:18.963Z,8.21
2023-03-02T22:52:46.986Z,8.21
2023-03-02T22:55:39.351Z,8.17
2023-03-02T22:58:30.551Z,8.15
2023-03-02T23:01:03.039Z,8.15
2023-03-02T23:03:44.785Z,8.12
2023-03-02T23:06:25.509Z,8.11
2023-03-02T23:08:56.422Z,8.12
2023-03-02T23:11:27.338Z,8.11
2023-03-02T23:13:54.556Z,8.12
2023-03-02T23:16:30.003Z,8.12
2023-03-02T23:18:59.722Z,8.13
2023-03-02T23:21:48.054Z,8.14
2023-03-02T23:24:20.584Z,8.15
2023-03-02T23:26:48.031Z,8.17
2023-03-02T23:29:20.251Z,8.20
2023-03-02T23:31:47.109Z,8.23
2023-03-02T23:34:17.014Z,8.25
2023-03-02T23:36:44.441Z,8.29
2023-03-02T23:39:11.535Z,8.30
2023-03-02T23:41:39.579Z,8.32
2023-03-02T23:44:08.860Z,8.31
2023-03-02T23:46:43.803Z,8.31
2023-03-02T23:49:12.343Z,8.31
2023-03-02T23:51:41.115Z,8.31
2023-03-02T23:54:07.992Z,8.32
2023-03-02T23:56:34.474Z,8.33
2023-03-02T23:59:02.732Z,8.33
